KAGS/AGS METAR and TAF weather

Enter ICAO airport designator
Station Type Date Time Source
KAGS METAR 2018/10/22 15:53 UTC NOAA

KAGS 221553Z VRB05KT 10SM CLR 17/03 A3035 RMK AO2 SLP276 T01720033


Station Type Date Time Source
KAGS Decoded METAR 2018/10/22 15:53 UTC NOAA

AUGUSTA BUSH FIELD, GA, United States (KAGS) 33-22N 081-58W 44M
Oct 22, 2018 - 11:53 AM EDT / 2018.10.22 1553 UTC
Wind: Variable at 6 MPH (5 KT):0
Visibility: 10 mile(s):0
Sky conditions: clear
Temperature: 63.0 F (17.2 C)
Dew Point: 37.9 F (3.3 C)
Relative Humidity: 39%
Pressure (altimeter): 30.35 in. Hg (1027 hPa)
ob: KAGS 221553Z VRB05KT 10SM CLR 17/03 A3035 RMK AO2 SLP276 T01720033
cycle: 16

Station Type Date Time Source
KAGS TAF 2018/10/22 15:04 UTC NOAA

TAF
AMD KAGS 221502Z 2215/2312 12005KT P6SM SCT250
FM222300 VRB03KT P6SM SCT250
FM230600 VRB03KT P6SM BKN035


Example: see airport list